Time;durP1;ratioP1;P1;durP2;ratioP2;P2;SDS_P1;SDS_P2;PMS_P1;PMS_P2;Temp;Humidity;BMP_temperature;BMP_pressure;BME280_temperature;BME280_humidity;BME280_pressure;Samples;Min_cycle;Max_cycle;Signal;HPM_P1;HPM_P2
2023/10/21 00:00:56;;;;;;;11.27;1.60;;;;;;;16.13;100.00;97476.88;7359962;19;20015;-65
2023/10/21 00:03:23;;;;;;;13.82;1.58;;;;;;;16.14;100.00;97480.34;7353089;19;20006;-65
2023/10/21 00:05:50;;;;;;;12.52;1.30;;;;;;;16.14;100.00;97472.38;7358155;19;20010;-66
2023/10/21 00:08:19;;;;;;;12.07;2.25;;;;;;;16.11;100.00;97476.34;7355490;19;20010;-65
2023/10/21 00:10:46;;;;;;;12.32;2.03;;;;;;;16.12;100.00;97474.50;7351029;19;20014;-66
2023/10/21 00:13:13;;;;;;;15.40;2.10;;;;;;;16.12;100.00;97472.63;7356531;19;20014;-66
2023/10/21 00:15:40;;;;;;;16.23;1.70;;;;;;;16.12;100.00;97482.44;7358826;19;20018;-65
2023/10/21 00:18:07;;;;;;;24.52;2.72;;;;;;;16.12;100.00;97477.16;7353854;19;20465;-65
2023/10/21 00:20:34;;;;;;;13.55;1.40;;;;;;;16.09;100.00;97475.84;7358065;19;20053;-65
2023/10/21 00:23:02;;;;;;;13.40;1.15;;;;;;;16.09;100.00;97470.53;7355797;19;20029;-65
2023/10/21 00:25:29;;;;;;;13.55;1.67;;;;;;;16.11;100.00;97486.16;7359076;19;20017;-66
2023/10/21 00:27:56;;;;;;;14.07;1.27;;;;;;;16.09;100.00;97490.97;7355277;19;20078;-66
2023/10/21 00:30:23;;;;;;;11.35;1.38;;;;;;;16.09;100.00;97489.09;7356947;19;20033;-65
2023/10/21 00:32:50;;;;;;;15.75;2.08;;;;;;;16.08;100.00;97489.38;7354157;19;20818;-66
2023/10/21 00:35:17;;;;;;;13.27;1.50;;;;;;;16.08;100.00;97492.81;7356801;19;20018;-66
2023/10/21 00:37:44;;;;;;;16.10;1.40;;;;;;;16.12;100.00;97496.50;7354904;19;20021;-66
2023/10/21 00:40:11;;;;;;;14.18;2.90;;;;;;;16.12;100.00;97491.19;7356710;19;20018;-65
2023/10/21 00:42:38;;;;;;;13.50;1.10;;;;;;;16.14;100.00;97491.75;7353901;19;20024;-65
2023/10/21 00:45:06;;;;;;;10.65;1.30;;;;;;;16.16;100.00;97499.41;7355753;19;20018;-66
2023/10/21 00:47:33;;;;;;;9.93;1.40;;;;;;;16.15;100.00;97495.97;7351510;19;20126;-64
2023/10/21 00:50:03;;;;;;;11.63;1.30;;;;;;;16.13;100.00;97492.78;7355501;19;20090;-66
2023/10/21 00:52:30;;;;;;;25.90;2.15;;;;;;;16.13;100.00;97505.25;7353934;19;21636;-66
2023/10/21 00:55:00;;;;;;;19.63;1.13;;;;;;;16.12;100.00;97495.72;7364020;19;20379;-66
2023/10/21 00:57:28;;;;;;;20.02;2.42;;;;;;;16.10;100.00;97503.94;7354880;19;20023;-65
2023/10/21 01:00:00;;;;;;;20.27;1.55;;;;;;;16.12;100.00;97501.81;7353909;19;20330;-65
2023/10/21 01:02:28;;;;;;;14.05;1.25;;;;;;;16.12;100.00;97501.81;7352467;19;20018;-66
2023/10/21 01:04:55;;;;;;;14.60;1.30;;;;;;;16.10;100.00;97503.16;7350435;19;20050;-65
2023/10/21 01:07:22;;;;;;;12.75;1.23;;;;;;;16.07;100.00;97501.03;7356235;19;20601;-65
2023/10/21 01:09:49;;;;;;;12.50;1.40;;;;;;;16.07;100.00;97501.84;7352162;19;20013;-66
2023/10/21 01:12:16;;;;;;;11.40;2.13;;;;;;;16.08;100.00;97502.63;7351007;19;20014;-65
2023/10/21 01:14:43;;;;;;;15.95;1.50;;;;;;;16.09;100.00;97499.72;7355007;19;20011;-66
2023/10/21 01:17:10;;;;;;;20.45;1.63;;;;;;;16.11;100.00;97505.53;7353465;19;20813;-65
2023/10/21 01:19:37;;;;;;;12.13;0.90;;;;;;;16.15;100.00;97511.09;7352197;19;20026;-65
2023/10/21 01:22:04;;;;;;;13.07;1.17;;;;;;;16.14;100.00;97506.84;7352286;19;20022;-65
2023/10/21 01:24:31;;;;;;;11.10;1.38;;;;;;;16.15;100.00;97506.56;7352407;19;20002;-66
2023/10/21 01:26:58;;;;;;;10.35;0.98;;;;;;;16.14;100.00;97498.91;7348278;19;20014;-66
2023/10/21 01:29:25;;;;;;;16.55;1.65;;;;;;;16.16;100.00;97504.72;7352048;19;20049;-66
2023/10/21 01:31:52;;;;;;;14.60;1.48;;;;;;;16.19;100.00;97494.38;7356082;19;20027;-65
2023/10/21 01:34:19;;;;;;;14.38;1.00;;;;;;;16.21;100.00;97502.03;7349294;19;20070;-66
2023/10/21 01:36:47;;;;;;;14.25;1.10;;;;;;;16.21;100.00;97504.69;7355093;19;20018;-66
2023/10/21 01:39:14;;;;;;;17.02;1.50;;;;;;;16.20;100.00;97498.59;7352176;19;20052;-66
2023/10/21 01:41:41;;;;;;;18.92;1.35;;;;;;;16.17;100.00;97501.00;7356241;19;20498;-66
2023/10/21 01:44:08;;;;;;;12.95;1.60;;;;;;;16.15;100.00;97511.88;7352129;19;20722;-66
2023/10/21 01:46:37;;;;;;;17.33;1.85;;;;;;;16.14;100.00;97514.81;7355950;19;20953;-66
2023/10/21 01:49:04;;;;;;;20.65;2.30;;;;;;;16.13;100.00;97515.88;7350892;19;20610;-66
2023/10/21 01:51:31;;;;;;;16.60;1.25;;;;;;;16.09;100.00;97515.63;7356337;19;20106;-65
2023/10/21 01:53:58;;;;;;;15.50;1.50;;;;;;;16.07;100.00;97512.44;7353097;19;20105;-65
2023/10/21 01:56:25;;;;;;;11.18;1.15;;;;;;;16.04;100.00;97509.53;7355986;19;20102;-66
2023/10/21 01:58:52;;;;;;;9.60;1.40;;;;;;;16.00;100.00;97514.56;7353904;19;21035;-66
2023/10/21 02:01:19;;;;;;;15.93;1.30;;;;;;;15.99;100.00;97515.66;7354000;19;20010;-66
2023/10/21 02:03:47;;;;;;;17.20;2.00;;;;;;;15.99;100.00;97514.88;7346366;19;20010;-67
2023/10/21 02:06:14;;;;;;;18.98;1.60;;;;;;;16.00;100.00;97513.81;7352945;19;20019;-70
2023/10/21 02:08:41;;;;;;;14.85;1.60;;;;;;;16.01;100.00;97510.88;7352436;19;20316;-65
2023/10/21 02:11:08;;;;;;;12.88;1.60;;;;;;;16.01;100.00;97510.06;7354866;19;20923;-66
2023/10/21 02:13:35;;;;;;;19.00;1.88;;;;;;;16.03;100.00;97513.25;7348603;19;20089;-65
2023/10/21 02:16:08;;;;;;;16.75;1.23;;;;;;;16.04;100.00;97510.34;7354564;19;20099;-66
2023/10/21 02:18:36;;;;;;;13.93;1.17;;;;;;;16.05;100.00;97516.44;7349490;19;20045;-65
2023/10/21 02:21:06;;;;;;;14.10;1.10;;;;;;;16.05;100.00;97519.88;7361008;19;20089;-66
2023/10/21 02:23:34;;;;;;;17.08;1.35;;;;;;;16.05;100.00;97525.16;7358727;19;20483;-65
2023/10/21 02:26:03;;;;;;;17.40;1.52;;;;;;;16.06;100.00;97528.63;7364632;19;20509;-66
2023/10/21 02:28:30;;;;;;;16.90;1.50;;;;;;;16.07;100.00;97519.59;7359748;19;20071;-65
2023/10/21 02:31:03;;;;;;;13.40;1.30;;;;;;;16.09;100.00;97517.47;7360947;19;20020;-66
2023/10/21 02:33:30;;;;;;;13.65;0.90;;;;;;;16.10;100.00;97519.06;7358885;19;20051;-65
2023/10/21 02:35:57;;;;;;;14.07;1.30;;;;;;;16.09;100.00;97522.78;7357865;19;20093;-65
2023/10/21 02:38:24;;;;;;;11.80;1.40;;;;;;;16.07;100.00;97514.28;7360206;19;20026;-66
2023/10/21 02:40:51;;;;;;;12.95;1.80;;;;;;;16.09;100.00;97517.47;7361176;19;20022;-65
2023/10/21 02:43:18;;;;;;;18.25;1.90;;;;;;;16.13;100.00;97514.03;7361463;19;20014;-65
2023/10/21 02:45:45;;;;;;;17.80;1.88;;;;;;;16.13;100.00;97516.66;7367704;19;20026;-66
2023/10/21 02:48:12;;;;;;;14.43;1.40;;;;;;;16.13;100.00;97516.66;7357666;19;20022;-65
2023/10/21 02:50:40;;;;;;;16.67;1.30;;;;;;;16.13;100.00;97518.53;7360919;19;20602;-67
2023/10/21 02:53:07;;;;;;;14.07;1.38;;;;;;;16.11;100.00;97512.69;7359813;19;20018;-66
2023/10/21 02:55:34;;;;;;;17.13;1.30;;;;;;;16.11;100.00;97515.34;7360265;19;20786;-66
2023/10/21 02:58:01;;;;;;;17.45;1.80;;;;;;;16.10;100.00;97517.19;7359494;19;20478;-66
2023/10/21 03:00:28;;;;;;;14.55;1.20;;;;;;;16.13;100.00;97518.53;7356210;19;20014;-66
2023/10/21 03:02:56;;;;;;;12.80;1.20;;;;;;;16.13;100.00;97515.88;7354566;19;20119;-66
2023/10/21 03:05:24;;;;;;;12.35;1.10;;;;;;;16.11;100.00;97520.66;7357948;19;20443;-66
2023/10/21 03:07:50;;;;;;;6.80;1.25;;;;;;;16.07;100.00;97515.09;7358847;19;20010;-65
2023/10/21 03:10:17;;;;;;;9.98;0.98;;;;;;;16.06;100.00;97513.50;7359883;19;20657;-66
2023/10/21 03:12:44;;;;;;;14.02;2.35;;;;;;;16.04;100.00;97507.69;7357623;19;20900;-66
2023/10/21 03:15:11;;;;;;;11.60;0.95;;;;;;;16.07;100.00;97514.28;7355807;19;20082;-65
2023/10/21 03:17:39;;;;;;;10.85;0.68;;;;;;;16.07;100.00;97503.69;7355791;19;20018;-66
2023/10/21 03:20:09;;;;;;;9.15;0.70;;;;;;;16.04;100.00;97502.38;7356983;19;20035;-66
2023/10/21 03:22:38;;;;;;;;;;;;;;;16.03;100.00;97502.66;7361596;19;20015;-66
2023/10/21 03:25:06;;;;;;;8.27;0.52;;;;;;;16.02;100.00;97514.31;7357428;19;19924;-66
2023/10/21 03:27:33;;;;;;;6.03;0.63;;;;;;;16.02;100.00;97506.34;7357621;19;20014;-65
2023/10/21 03:30:00;;;;;;;8.35;0.60;;;;;;;16.02;100.00;97501.84;7358541;19;20015;-65
2023/10/21 03:32:27;;;;;;;8.13;0.80;;;;;;;16.03;100.00;97510.59;7355081;19;20025;-65
2023/10/21 03:34:54;;;;;;;8.88;0.50;;;;;;;16.00;100.00;97509.28;7356814;19;20035;-65
2023/10/21 03:37:21;;;;;;;7.40;1.88;;;;;;;15.99;100.00;97507.72;7358682;19;20382;-65
2023/10/21 03:39:48;;;;;;;8.20;0.40;;;;;;;15.95;100.00;97511.94;7358424;19;20017;-65
2023/10/21 03:42:15;;;;;;;7.45;0.50;;;;;;;15.94;100.00;97515.69;7358853;19;20495;-67
2023/10/21 03:44:42;;;;;;;6.65;0.50;;;;;;;15.92;100.00;97515.13;7353931;19;20502;-66
2023/10/21 03:47:09;;;;;;;4.30;0.40;;;;;;;15.92;100.00;97514.34;7358037;19;20024;-67
2023/10/21 03:49:36;;;;;;;6.78;0.60;;;;;;;15.91;100.00;97518.06;7355401;19;20388;-67
2023/10/21 03:52:04;;;;;;;5.35;0.40;;;;;;;15.90;100.00;97527.09;7359344;19;20032;-66
2023/10/21 03:54:30;;;;;;;4.80;0.32;;;;;;;15.89;100.00;97520.19;7359961;19;20022;-66
2023/10/21 03:56:58;;;;;;;6.03;0.40;;;;;;;15.89;100.00;97521.00;7360186;19;20022;-66
2023/10/21 03:59:25;;;;;;;6.00;0.40;;;;;;;15.91;100.00;97526.81;7358481;19;20018;-66
2023/10/21 04:01:52;;;;;;;6.90;0.50;;;;;;;15.89;100.00;97514.88;7359091;19;20025;-67
2023/10/21 04:04:19;;;;;;;6.93;0.47;;;;;;;15.91;100.00;97516.19;7354039;19;20040;-66
2023/10/21 04:06:46;;;;;;;7.47;0.40;;;;;;;15.90;100.00;97511.94;7358400;19;20022;-65
2023/10/21 04:09:13;;;;;;;7.03;0.40;;;;;;;15.91;100.00;97523.34;7354773;19;20093;-66
2023/10/21 04:11:42;;;;;;;8.77;0.90;;;;;;;15.91;100.00;97526.81;7359286;19;20019;-65
2023/10/21 04:14:10;;;;;;;4.78;0.40;;;;;;;15.85;100.00;97519.91;7352339;19;20018;-65
2023/10/21 04:16:42;;;;;;;6.13;0.50;;;;;;;15.86;100.00;97521.50;7352077;19;20010;-65
2023/10/21 04:19:09;;;;;;;3.43;0.47;;;;;;;15.87;100.00;97517.81;7353691;19;20011;-65
2023/10/21 04:21:36;;;;;;;4.32;0.20;;;;;;;15.88;100.00;97519.41;7357141;19;20048;-66
2023/10/21 04:24:03;;;;;;;4.68;0.30;;;;;;;15.86;100.00;97518.84;7353482;19;20015;-66
2023/10/21 04:26:30;;;;;;;3.58;0.20;;;;;;;15.85;100.00;97521.81;7356581;19;21010;-66
2023/10/21 04:28:57;;;;;;;4.78;0.32;;;;;;;15.80;100.00;97520.72;7355289;19;20007;-65
2023/10/21 04:31:24;;;;;;;8.52;0.40;;;;;;;15.79;100.00;97524.47;7359438;19;20022;-65
2023/10/21 04:33:51;;;;;;;4.38;0.30;;;;;;;15.80;100.00;97522.56;7352365;19;20014;-67
2023/10/21 04:36:18;;;;;;;5.50;0.30;;;;;;;15.80;100.00;97530.53;7358604;19;20018;-66
2023/10/21 04:38:45;;;;;;;5.35;0.30;;;;;;;15.79;100.00;97521.00;7360539;19;20023;-67
2023/10/21 04:41:12;;;;;;;4.60;0.30;;;;;;;15.76;100.00;97526.84;7358574;19;20534;-66
2023/10/21 04:43:39;;;;;;;5.78;0.20;;;;;;;15.73;100.00;97530.03;7353445;19;20032;-66
2023/10/21 04:46:06;;;;;;;4.38;0.40;;;;;;;15.71;100.00;97535.59;7353313;19;20018;-66
2023/10/21 04:48:33;;;;;;;5.00;0.52;;;;;;;15.70;100.00;97536.66;7352644;19;20499;-65
2023/10/21 04:51:00;;;;;;;10.07;0.70;;;;;;;15.69;100.00;97542.22;7354885;19;20082;-66
2023/10/21 04:53:27;;;;;;;6.35;0.30;;;;;;;15.65;100.00;97546.47;7355435;19;20018;-66
2023/10/21 04:55:54;;;;;;;5.15;0.30;;;;;;;15.64;100.00;97550.19;7356960;19;20014;-66
2023/10/21 04:58:21;;;;;;;6.63;0.40;;;;;;;15.58;100.00;97551.25;7355718;19;20019;-66
2023/10/21 05:00:49;;;;;;;7.88;0.40;;;;;;;15.56;100.00;97550.72;7356651;19;20604;-65
2023/10/21 05:03:16;;;;;;;8.48;0.30;;;;;;;15.56;100.00;97561.31;7350914;19;20126;-66
2023/10/21 05:05:44;;;;;;;4.72;0.52;;;;;;;15.60;100.00;97565.00;7354350;19;20423;-66
2023/10/21 05:08:11;;;;;;;5.85;0.45;;;;;;;15.61;100.00;97564.75;7355086;19;20048;-65
2023/10/21 05:10:38;;;;;;;7.22;0.40;;;;;;;15.63;100.00;97567.94;7355458;19;20018;-66
2023/10/21 05:13:05;;;;;;;5.55;0.40;;;;;;;15.64;100.00;97560.78;7355674;19;20081;-66
2023/10/21 05:15:32;;;;;;;7.22;0.30;;;;;;;15.65;100.00;97568.47;7351808;19;20027;-65
2023/10/21 05:17:59;;;;;;;4.82;0.30;;;;;;;15.66;100.00;97571.91;7349963;19;20066;-66
2023/10/21 05:20:26;;;;;;;11.65;1.60;;;;;;;15.64;100.00;97574.84;7352581;19;20071;-67
2023/10/21 05:22:53;;;;;;;5.43;0.82;;;;;;;15.63;100.00;97586.50;7353994;19;20597;-65
2023/10/21 05:25:20;;;;;;;2.70;0.30;;;;;;;15.62;100.00;97579.59;7352431;19;20043;-65
2023/10/21 05:27:47;;;;;;;5.10;0.35;;;;;;;15.63;100.00;97591.81;7355801;19;20014;-66
2023/10/21 05:30:14;;;;;;;4.22;0.38;;;;;;;15.64;100.00;97596.06;7355968;19;20031;-65
2023/10/21 05:32:42;;;;;;;5.68;0.30;;;;;;;15.65;100.00;97596.81;7352387;19;20018;-64
2023/10/21 05:35:09;;;;;;;9.52;0.40;;;;;;;15.64;100.00;97598.69;7354884;19;20058;-65
2023/10/21 05:37:36;;;;;;;5.05;0.30;;;;;;;15.64;100.00;97604.00;7351933;19;20022;-65
2023/10/21 05:40:06;;;;;;;4.68;0.50;;;;;;;15.67;100.00;97605.31;7355587;19;20021;-66
2023/10/21 05:42:36;;;;;;;8.13;0.95;;;;;;;15.70;100.00;97604.78;7354896;19;21057;-66
2023/10/21 05:45:03;;;;;;;6.50;0.45;;;;;;;15.70;100.00;97612.72;7354984;19;20022;-66
2023/10/21 05:47:31;;;;;;;8.90;0.40;;;;;;;15.71;100.00;97609.81;7354330;19;20025;-68
2023/10/21 05:49:58;;;;;;;3.63;0.30;;;;;;;15.72;100.00;97611.41;7351333;19;20022;-66
2023/10/21 05:52:25;;;;;;;3.65;0.20;;;;;;;15.74;100.00;97622.56;7351786;19;20479;-66
2023/10/21 05:54:52;;;;;;;23.75;2.95;;;;;;;15.74;100.00;97619.91;7355471;19;20011;-66
2023/10/21 05:57:19;;;;;;;8.20;0.50;;;;;;;15.76;100.00;97628.38;7365132;19;20098;-67
2023/10/21 05:59:46;;;;;;;5.22;0.40;;;;;;;15.76;100.00;97630.22;7360221;19;20014;-66
2023/10/21 06:02:13;;;;;;;4.50;0.30;;;;;;;15.73;100.00;97628.91;7356005;19;20026;-66
2023/10/21 06:04:40;;;;;;;3.08;0.30;;;;;;;15.70;100.00;97623.31;7356775;19;20105;-66
2023/10/21 06:07:07;;;;;;;10.45;0.75;;;;;;;15.69;100.00;97625.22;7363487;19;20863;-66
2023/10/21 06:09:34;;;;;;;6.50;0.70;;;;;;;15.69;100.00;97635.00;7361333;19;20014;-66
2023/10/21 06:12:00;;;;;;;9.75;1.13;;;;;;;15.68;100.00;97628.91;7364838;19;20021;-64
2023/10/21 06:14:28;;;;;;;5.85;0.40;;;;;;;15.71;100.00;97631.03;7363925;19;20014;-65
2023/10/21 06:16:55;;;;;;;4.93;0.52;;;;;;;15.72;100.00;97637.91;7357247;19;20022;-65
2023/10/21 06:19:22;;;;;;;7.32;0.80;;;;;;;15.73;100.00;97644.03;7360481;19;20573;-65
2023/10/21 06:21:49;;;;;;;7.43;0.40;;;;;;;15.72;100.00;97642.44;7361925;19;20101;-65
2023/10/21 06:24:17;;;;;;;3.15;0.30;;;;;;;15.72;100.00;97653.81;7357026;19;19999;-65
2023/10/21 06:26:44;;;;;;;6.65;0.30;;;;;;;15.70;100.00;97663.09;7357939;19;20021;-65
2023/10/21 06:29:11;;;;;;;6.85;0.70;;;;;;;15.70;100.00;97668.38;7362379;19;20548;-65
2023/10/21 06:31:38;;;;;;;5.47;0.40;;;;;;;15.71;100.00;97672.63;7360794;19;20050;-66
2023/10/21 06:34:05;;;;;;;7.70;0.55;;;;;;;15.70;100.00;97679.00;7364529;19;20098;-65
2023/10/21 06:36:33;;;;;;;3.80;0.75;;;;;;;15.67;100.00;97685.63;7361183;19;20369;-66
2023/10/21 06:39:00;;;;;;;4.60;0.30;;;;;;;15.68;100.00;97673.97;7356816;19;20006;-66
2023/10/21 06:41:27;;;;;;;5.43;0.40;;;;;;;15.69;100.00;97680.88;7360817;19;20081;-66
2023/10/21 06:43:54;;;;;;;5.75;0.90;;;;;;;15.66;100.00;97691.19;7360506;19;20022;-65
2023/10/21 06:46:21;;;;;;;3.97;0.90;;;;;;;15.68;100.00;97697.03;7358494;19;20017;-65
2023/10/21 06:48:48;;;;;;;4.70;0.38;;;;;;;15.73;100.00;97697.84;7356447;19;20511;-65
2023/10/21 06:51:17;;;;;;;3.83;0.30;;;;;;;15.73;100.00;97705.78;7360474;19;20117;-66
2023/10/21 06:53:44;;;;;;;1.88;0.28;;;;;;;15.72;100.00;97701.53;7358615;19;20048;-65
2023/10/21 06:56:12;;;;;;;3.53;0.30;;;;;;;15.70;100.00;97703.66;7360442;19;20689;-66
2023/10/21 06:58:39;;;;;;;2.58;0.50;;;;;;;15.71;100.00;97707.09;7359243;19;20022;-66
2023/10/21 07:01:07;;;;;;;3.55;0.47;;;;;;;15.68;100.00;97705.00;7356686;19;20081;-65
2023/10/21 07:03:34;;;;;;;1.70;0.40;;;;;;;15.69;100.00;97710.03;7356728;19;20026;-65
2023/10/21 07:06:01;;;;;;;2.95;0.25;;;;;;;15.70;100.00;97714.25;7358382;19;20022;-66
2023/10/21 07:08:28;;;;;;;6.20;0.30;;;;;;;15.70;100.00;97719.56;7357861;19;20051;-66
2023/10/21 07:10:55;;;;;;;4.22;0.22;;;;;;;15.71;100.00;97725.66;7360696;19;20497;-66
2023/10/21 07:13:22;;;;;;;4.95;0.25;;;;;;;15.72;100.00;97716.66;7356844;19;20018;-65
2023/10/21 07:15:51;;;;;;;2.88;0.20;;;;;;;15.71;100.00;97721.16;7360191;19;20021;-65
2023/10/21 07:18:18;;;;;;;3.10;0.20;;;;;;;15.71;100.00;97723.81;7349702;19;20091;-64
2023/10/21 07:20:46;;;;;;;0.47;0.10;;;;;;;15.70;100.00;97734.66;7360100;19;20041;-66
2023/10/21 07:23:14;;;;;;;4.25;0.30;;;;;;;15.67;100.00;97730.69;7358689;19;20038;-66
2023/10/21 07:25:42;;;;;;;1.63;0.30;;;;;;;15.71;100.00;97736.25;7359413;19;20026;-66
2023/10/21 07:28:10;;;;;;;3.50;0.40;;;;;;;15.70;100.00;97745.28;7356486;19;20025;-65
2023/10/21 07:30:37;;;;;;;2.03;0.32;;;;;;;15.69;100.00;97749.81;7360562;19;20015;-65
2023/10/21 07:33:04;;;;;;;2.42;0.40;;;;;;;15.70;100.00;97750.56;7355277;19;20090;-66
2023/10/21 07:35:31;;;;;;;3.08;0.90;;;;;;;15.70;100.00;97754.03;7360379;19;20019;-66
2023/10/21 07:37:58;;;;;;;4.97;0.30;;;;;;;15.72;100.00;97753.75;7357827;19;20625;-66
2023/10/21 07:40:27;;;;;;;2.35;0.55;;;;;;;15.73;100.00;97758.81;7357013;19;20014;-65
2023/10/21 07:42:54;;;;;;;2.47;0.40;;;;;;;15.73;100.00;97763.31;7358963;19;20526;-67
2023/10/21 07:45:21;;;;;;;2.45;0.20;;;;;;;15.70;100.00;97764.63;7358878;19;20097;-67
2023/10/21 07:47:49;;;;;;;5.13;0.43;;;;;;;15.71;100.00;97774.19;7353325;19;20759;-65
2023/10/21 07:50:17;;;;;;;6.57;1.30;;;;;;;15.76;100.00;97778.69;7358542;19;20022;-67
2023/10/21 07:52:44;;;;;;;3.70;0.47;;;;;;;15.76;100.00;97776.84;7357540;19;20018;-66
2023/10/21 07:55:12;;;;;;;11.98;0.60;;;;;;;15.74;100.00;97773.66;7359159;19;20474;-66
2023/10/21 07:57:40;;;;;;;3.38;0.80;;;;;;;15.69;100.00;97773.66;7356118;19;20548;-67
2023/10/21 08:00:13;;;;;;;2.10;0.30;;;;;;;15.67;100.00;97775.75;7358161;19;20018;-66
2023/10/21 08:02:42;;;;;;;2.42;0.40;;;;;;;15.63;100.00;97765.94;7352317;19;20070;-65
2023/10/21 08:05:09;;;;;;;41.75;2.92;;;;;;;15.59;100.00;97772.84;7356353;19;20015;-66
2023/10/21 08:07:37;;;;;;;4.80;0.70;;;;;;;15.58;100.00;97761.44;7353883;19;20039;-66
2023/10/21 08:10:05;;;;;;;3.13;0.30;;;;;;;15.60;100.00;97774.41;7357144;19;20022;-65
2023/10/21 08:12:34;;;;;;;3.55;0.30;;;;;;;15.55;100.00;97769.88;7355138;19;20528;-65
2023/10/21 08:15:07;;;;;;;4.57;0.47;;;;;;;15.52;100.00;97775.72;7357606;19;20029;-65
2023/10/21 08:17:35;;;;;;;3.05;0.40;;;;;;;15.50;100.00;97775.13;7350793;19;20019;-66
2023/10/21 08:20:03;;;;;;;1.98;0.60;;;;;;;15.49;100.00;97784.13;7351207;19;20014;-66
2023/10/21 08:22:33;;;;;;;1.67;0.30;;;;;;;15.48;100.00;97779.13;7355464;19;20014;-67
2023/10/21 08:25:00;;;;;;;1.45;0.20;;;;;;;15.47;100.00;97801.38;7353652;19;20014;-66
2023/10/21 08:27:28;;;;;;;3.55;0.38;;;;;;;15.45;100.00;97792.88;7355808;19;20353;-65
2023/10/21 08:29:58;;;;;;;0.57;0.17;;;;;;;15.43;100.00;97790.50;7355928;19;20039;-66
2023/10/21 08:32:25;;;;;;;1.58;0.20;;;;;;;15.41;100.00;97787.31;7362237;19;20019;-66
2023/10/21 08:34:51;;;;;;;6.82;0.80;;;;;;;15.47;100.00;97796.06;7353282;19;20014;-66
2023/10/21 08:37:18;;;;;;;3.55;0.43;;;;;;;15.50;100.00;97800.84;7357471;19;20014;-66
2023/10/21 08:39:48;;;;;;;2.38;0.30;;;;;;;15.51;100.00;97786.53;7361330;19;20030;-66
2023/10/21 08:42:17;;;;;;;3.95;0.30;;;;;;;15.46;100.00;97782.03;7358193;19;20601;-66
2023/10/21 08:44:45;;;;;;;3.30;0.32;;;;;;;15.47;100.00;97783.63;7354185;19;20056;-66
2023/10/21 08:47:14;;;;;;;2.40;0.13;;;;;;;15.44;100.00;97784.13;7353020;19;20044;-65
2023/10/21 08:49:45;;;;;;;2.95;0.93;;;;;;;15.45;100.00;97791.03;7354290;19;20030;-66
2023/10/21 08:52:14;;;;;;;2.00;0.30;;;;;;;15.52;100.00;97788.16;7353909;19;20086;-66
2023/10/21 08:54:42;;;;;;;1.83;0.20;;;;;;;15.54;100.00;97786.88;7355007;19;20134;-66
2023/10/21 08:57:10;;;;;;;2.40;0.20;;;;;;;15.56;100.00;97784.75;7357834;19;20042;-66
2023/10/21 08:59:38;;;;;;;1.60;0.50;;;;;;;15.59;100.00;97789.53;7354804;19;20007;-66
2023/10/21 09:02:05;;;;;;;2.08;0.30;;;;;;;15.62;100.00;97789.00;7356267;19;20534;-66
2023/10/21 09:04:33;;;;;;;2.08;0.20;;;;;;;15.66;100.00;97791.91;7352351;19;20023;-65
2023/10/21 09:07:00;;;;;;;4.05;0.40;;;;;;;15.70;100.00;97793.78;7353959;19;20041;-66
2023/10/21 09:09:28;;;;;;;1.48;0.20;;;;;;;15.72;100.00;97794.34;7351105;19;20015;-66
2023/10/21 09:12:10;;;;;;;2.63;1.58;;;;;;;15.75;100.00;97799.09;7354148;19;20042;-66
2023/10/21 09:14:58;;;;;;;2.25;0.35;;;;;;;15.77;100.00;97806.81;7354311;19;20025;-66
2023/10/21 09:17:52;;;;;;;1.95;0.32;;;;;;;15.81;100.00;97803.38;7354557;19;20006;-66
2023/10/21 09:20:20;;;;;;;2.03;0.60;;;;;;;15.81;100.00;97794.63;7348836;19;20066;-66
2023/10/21 09:22:52;;;;;;;3.60;0.40;;;;;;;15.85;100.00;97802.88;7355672;19;20677;-66
2023/10/21 09:25:22;;;;;;;1.88;0.20;;;;;;;15.87;100.00;97806.03;7356609;19;20105;-66
2023/10/21 09:27:54;;;;;;;3.85;0.50;;;;;;;15.88;100.00;97797.81;7352608;19;20138;-66
2023/10/21 09:30:26;;;;;;;3.80;0.40;;;;;;;15.91;100.00;97809.75;7352716;19;20026;-65
2023/10/21 09:33:07;;;;;;;2.22;0.30;;;;;;;15.95;100.00;97808.19;7352034;19;20278;-65
2023/10/21 09:35:36;;;;;;;2.08;0.20;;;;;;;16.00;100.00;97808.19;7355216;19;21083;-65
2023/10/21 09:38:18;;;;;;;2.03;0.20;;;;;;;16.05;100.00;97816.94;7354190;19;20028;-66
2023/10/21 09:40:45;;;;;;;2.67;0.35;;;;;;;16.07;100.00;97816.69;7354898;19;20368;-65
2023/10/21 09:43:13;;;;;;;3.85;0.63;;;;;;;16.13;100.00;97813.78;7354429;19;20287;-66
2023/10/21 09:45:45;;;;;;;1.42;0.43;;;;;;;16.17;100.00;97819.34;7330047;19;20018;-65
2023/10/21 09:48:13;;;;;;;;;;;;;;;16.18;100.00;97819.09;7346763;19;20018;-64
2023/10/21 09:50:50;;;;;;;3.15;0.60;;;;;;;16.22;100.00;97822.00;7352356;19;21539;-65
2023/10/21 09:53:24;;;;;;;3.92;0.30;;;;;;;16.26;100.00;97823.88;7354314;19;20029;-66
2023/10/21 09:55:52;;;;;;;1.17;0.20;;;;;;;16.30;100.00;97820.72;7356937;19;20014;-64
2023/10/21 09:58:22;;;;;;;2.25;0.20;;;;;;;16.33;100.00;97823.63;7355619;19;20015;-67
2023/10/21 10:00:49;;;;;;;1.95;0.20;;;;;;;16.37;100.00;97823.88;7354242;19;20017;-65
2023/10/21 10:03:17;;;;;;;2.28;0.20;;;;;;;16.39;100.00;97833.19;7339695;19;20015;-65
2023/10/21 10:05:45;;;;;;;2.55;0.20;;;;;;;16.38;100.00;97828.94;7351021;19;21802;-64
2023/10/21 10:08:12;;;;;;;2.15;0.30;;;;;;;16.40;100.00;97840.09;7349437;19;20078;-66
2023/10/21 10:10:40;;;;;;;1.60;0.20;;;;;;;16.43;100.00;97833.44;7352964;19;20093;-65
2023/10/21 10:13:10;;;;;;;1.65;0.20;;;;;;;16.45;100.00;97844.59;7348364;19;20021;-66
2023/10/21 10:15:39;;;;;;;2.13;0.30;;;;;;;16.42;100.00;97847.78;7352579;19;20026;-66
2023/10/21 10:18:08;;;;;;;2.50;0.30;;;;;;;16.43;100.00;97846.72;7349896;19;20013;-66
2023/10/21 10:20:48;;;;;;;2.33;0.20;;;;;;;16.49;100.00;97851.78;7348851;19;20019;-66
2023/10/21 10:23:15;;;;;;;7.63;0.50;;;;;;;16.56;100.00;97843.53;7348934;19;20014;-66
2023/10/21 10:25:48;;;;;;;5.88;0.45;;;;;;;16.57;100.00;97848.56;7358510;19;20015;-66
2023/10/21 10:28:19;;;;;;;4.82;1.90;;;;;;;16.63;100.00;97846.75;7347625;19;20440;-66
2023/10/21 10:30:51;;;;;;;3.17;0.30;;;;;;;16.69;100.00;97853.66;7352465;19;20035;-66
2023/10/21 10:33:25;;;;;;;3.22;0.40;;;;;;;16.73;100.00;97859.22;7345890;19;20353;-66
2023/10/21 10:35:57;;;;;;;2.80;0.40;;;;;;;16.75;100.00;97857.13;7352645;19;20019;-66
2023/10/21 10:38:34;;;;;;;3.63;0.30;;;;;;;16.78;100.00;97856.56;7349329;19;20014;-66
2023/10/21 10:41:11;;;;;;;6.45;0.57;;;;;;;16.79;100.00;97858.97;7349823;19;20057;-66
2023/10/21 10:43:41;;;;;;;5.15;0.65;;;;;;;16.86;100.00;97862.16;7358216;19;20901;-68
2023/10/21 10:46:09;;;;;;;0.85;0.13;;;;;;;16.88;100.00;97872.50;7358896;19;20014;-65
2023/10/21 10:48:36;;;;;;;1.27;0.30;;;;;;;16.87;100.00;97873.56;7350655;19;20538;-66
2023/10/21 10:51:12;;;;;;;2.05;0.20;;;;;;;16.86;100.00;97877.31;7363420;19;20010;-66
2023/10/21 10:53:39;;;;;;;3.45;0.63;;;;;;;16.89;100.00;97882.06;7356942;19;20122;-65
2023/10/21 10:56:09;;;;;;;1.52;0.20;;;;;;;16.95;100.00;97878.34;7344602;19;20021;-66
2023/10/21 10:58:38;;;;;;;1.58;0.10;;;;;;;17.00;100.00;97883.66;7358200;19;20102;-66
2023/10/21 11:01:07;;;;;;;1.15;0.20;;;;;;;17.04;100.00;97882.06;7367204;19;20018;-64
2023/10/21 11:03:36;;;;;;;3.85;0.20;;;;;;;17.05;100.00;97888.97;7362365;19;20033;-66
2023/10/21 11:06:03;;;;;;;3.67;0.30;;;;;;;17.11;100.00;97890.56;7361430;19;20044;-67
2023/10/21 11:08:30;;;;;;;1.92;0.10;;;;;;;17.14;100.00;97897.19;7358839;19;20031;-68
2023/10/21 11:11:05;;;;;;;3.80;0.20;;;;;;;17.09;100.00;97893.47;7361276;19;20349;-66
2023/10/21 11:13:33;;;;;;;1.35;0.20;;;;;;;17.10;100.00;97903.06;7355867;19;20025;-65
2023/10/21 11:16:04;;;;;;;2.22;0.30;;;;;;;17.09;100.00;97898.00;7356156;19;20502;-64
2023/10/21 11:18:33;;;;;;;0.93;0.20;;;;;;;17.15;100.00;97899.59;7353239;19;20460;-66
2023/10/21 11:21:01;;;;;;;10.45;2.78;;;;;;;17.20;100.00;97899.59;7335634;19;20014;-65
2023/10/21 11:23:28;;;;;;;2.10;0.30;;;;;;;17.21;100.00;97906.50;7351715;19;20014;-66
2023/10/21 11:25:58;;;;;;;2.42;0.30;;;;;;;17.23;100.00;97911.53;7356584;19;20087;-65
2023/10/21 11:28:26;;;;;;;0.88;0.22;;;;;;;17.22;100.00;97910.72;7353937;19;20085;-66